sensor_id;sensor_type;location;lat;lon;timestamp;P1;durP1;ratioP1;P2;durP2;ratioP2
19595;SDS011;9945;46.010;8.946;2023-03-17T00:00:48;8.60;;;7.80;;
19595;SDS011;9945;46.010;8.946;2023-03-17T00:03:16;8.87;;;8.00;;
19595;SDS011;9945;46.010;8.946;2023-03-17T00:05:47;7.97;;;7.27;;
19595;SDS011;9945;46.010;8.946;2023-03-17T00:08:18;8.37;;;7.57;;
19595;SDS011;9945;46.010;8.946;2023-03-17T00:10:47;8.73;;;7.93;;
19595;SDS011;9945;46.010;8.946;2023-03-17T00:13:14;9.70;;;7.27;;
19595;SDS011;9945;46.010;8.946;2023-03-17T00:15:41;8.37;;;7.47;;
19595;SDS011;9945;46.010;8.946;2023-03-17T00:18:09;9.00;;;7.90;;
19595;SDS011;9945;46.010;8.946;2023-03-17T00:20:39;9.67;;;8.20;;
19595;SDS011;9945;46.010;8.946;2023-03-17T00:23:07;8.80;;;7.80;;
19595;SDS011;9945;46.010;8.946;2023-03-17T00:25:41;7.10;;;6.50;;
19595;SDS011;9945;46.010;8.946;2023-03-17T00:28:12;8.43;;;6.93;;
19595;SDS011;9945;46.010;8.946;2023-03-17T00:30:42;8.80;;;7.90;;
19595;SDS011;9945;46.010;8.946;2023-03-17T00:33:09;8.07;;;7.37;;
19595;SDS011;9945;46.010;8.946;2023-03-17T00:35:37;8.37;;;7.67;;
19595;SDS011;9945;46.010;8.946;2023-03-17T00:38:05;9.23;;;8.20;;
19595;SDS011;9945;46.010;8.946;2023-03-17T00:40:36;10.00;;;7.57;;
19595;SDS011;9945;46.010;8.946;2023-03-17T00:43:04;8.33;;;7.53;;
19595;SDS011;9945;46.010;8.946;2023-03-17T00:45:32;8.33;;;7.50;;
19595;SDS011;9945;46.010;8.946;2023-03-17T00:47:59;10.30;;;7.67;;
19595;SDS011;9945;46.010;8.946;2023-03-17T00:50:27;8.60;;;7.80;;
19595;SDS011;9945;46.010;8.946;2023-03-17T00:52:55;8.20;;;7.40;;
19595;SDS011;9945;46.010;8.946;2023-03-17T00:55:23;8.20;;;7.40;;
19595;SDS011;9945;46.010;8.946;2023-03-17T00:57:51;8.70;;;7.80;;
19595;SDS011;9945;46.010;8.946;2023-03-17T01:00:21;8.73;;;7.47;;
19595;SDS011;9945;46.010;8.946;2023-03-17T01:02:50;10.00;;;8.43;;
19595;SDS011;9945;46.010;8.946;2023-03-17T01:05:18;8.23;;;7.43;;
19595;SDS011;9945;46.010;8.946;2023-03-17T01:07:47;11.17;;;7.97;;
19595;SDS011;9945;46.010;8.946;2023-03-17T01:10:18;8.23;;;7.43;;
19595;SDS011;9945;46.010;8.946;2023-03-17T01:12:48;8.83;;;7.97;;
19595;SDS011;9945;46.010;8.946;2023-03-17T01:15:16;8.60;;;7.70;;
19595;SDS011;9945;46.010;8.946;2023-03-17T01:17:45;9.37;;;8.43;;
19595;SDS011;9945;46.010;8.946;2023-03-17T01:20:14;10.50;;;7.87;;
19595;SDS011;9945;46.010;8.946;2023-03-17T01:22:45;8.57;;;7.70;;
19595;SDS011;9945;46.010;8.946;2023-03-17T01:25:12;10.47;;;7.53;;
19595;SDS011;9945;46.010;8.946;2023-03-17T01:27:39;9.00;;;8.13;;
19595;SDS011;9945;46.010;8.946;2023-03-17T01:30:09;9.57;;;8.43;;
19595;SDS011;9945;46.010;8.946;2023-03-17T01:32:49;9.70;;;8.17;;
19595;SDS011;9945;46.010;8.946;2023-03-17T01:35:16;8.43;;;7.20;;
19595;SDS011;9945;46.010;8.946;2023-03-17T01:37:44;8.23;;;7.43;;
19595;SDS011;9945;46.010;8.946;2023-03-17T01:40:13;9.43;;;7.43;;
19595;SDS011;9945;46.010;8.946;2023-03-17T01:42:43;10.57;;;7.80;;
19595;SDS011;9945;46.010;8.946;2023-03-17T01:48:12;8.47;;;7.03;;
19595;SDS011;9945;46.010;8.946;2023-03-17T01:50:41;8.63;;;7.13;;
19595;SDS011;9945;46.010;8.946;2023-03-17T01:53:10;7.60;;;6.93;;
19595;SDS011;9945;46.010;8.946;2023-03-17T01:55:37;9.07;;;7.50;;
19595;SDS011;9945;46.010;8.946;2023-03-17T01:58:05;9.50;;;6.87;;
19595;SDS011;9945;46.010;8.946;2023-03-17T02:00:33;8.53;;;7.73;;
19595;SDS011;9945;46.010;8.946;2023-03-17T02:03:00;9.47;;;7.10;;
19595;SDS011;9945;46.010;8.946;2023-03-17T02:05:29;7.80;;;7.10;;
19595;SDS011;9945;46.010;8.946;2023-03-17T02:07:57;7.50;;;6.80;;
19595;SDS011;9945;46.010;8.946;2023-03-17T02:10:25;10.13;;;7.73;;
19595;SDS011;9945;46.010;8.946;2023-03-17T02:12:54;8.07;;;7.27;;
19595;SDS011;9945;46.010;8.946;2023-03-17T02:15:23;8.53;;;7.17;;
19595;SDS011;9945;46.010;8.946;2023-03-17T02:18:00;7.60;;;6.77;;
19595;SDS011;9945;46.010;8.946;2023-03-17T02:21:23;7.00;;;6.40;;
19595;SDS011;9945;46.010;8.946;2023-03-17T02:23:56;9.07;;;6.43;;
19595;SDS011;9945;46.010;8.946;2023-03-17T02:26:25;7.17;;;6.33;;
19595;SDS011;9945;46.010;8.946;2023-03-17T02:28:55;7.17;;;6.57;;
19595;SDS011;9945;46.010;8.946;2023-03-17T02:31:22;7.57;;;6.83;;
19595;SDS011;9945;46.010;8.946;2023-03-17T02:33:51;8.07;;;7.37;;
19595;SDS011;9945;46.010;8.946;2023-03-17T02:36:19;7.50;;;6.63;;
19595;SDS011;9945;46.010;8.946;2023-03-17T02:38:46;6.80;;;6.10;;
19595;SDS011;9945;46.010;8.946;2023-03-17T02:41:13;7.50;;;6.80;;
19595;SDS011;9945;46.010;8.946;2023-03-17T02:43:41;7.73;;;6.27;;
19595;SDS011;9945;46.010;8.946;2023-03-17T02:46:07;7.50;;;6.80;;
19595;SDS011;9945;46.010;8.946;2023-03-17T02:48:35;6.70;;;6.03;;
19595;SDS011;9945;46.010;8.946;2023-03-17T02:51:02;7.43;;;6.70;;
19595;SDS011;9945;46.010;8.946;2023-03-17T02:53:31;10.10;;;7.03;;
19595;SDS011;9945;46.010;8.946;2023-03-17T02:55:58;7.97;;;6.70;;
19595;SDS011;9945;46.010;8.946;2023-03-17T02:58:25;7.20;;;6.40;;
19595;SDS011;9945;46.010;8.946;2023-03-17T03:00:52;7.97;;;6.20;;
19595;SDS011;9945;46.010;8.946;2023-03-17T03:03:19;7.47;;;6.80;;
19595;SDS011;9945;46.010;8.946;2023-03-17T03:05:45;7.43;;;6.73;;
19595;SDS011;9945;46.010;8.946;2023-03-17T03:08:12;13.10;;;7.07;;
19595;SDS011;9945;46.010;8.946;2023-03-17T03:10:41;7.00;;;6.30;;
19595;SDS011;9945;46.010;8.946;2023-03-17T03:13:08;7.00;;;6.30;;
19595;SDS011;9945;46.010;8.946;2023-03-17T03:15:35;7.00;;;6.40;;
19595;SDS011;9945;46.010;8.946;2023-03-17T03:18:02;7.70;;;6.90;;
19595;SDS011;9945;46.010;8.946;2023-03-17T03:20:30;6.80;;;6.20;;
19595;SDS011;9945;46.010;8.946;2023-03-17T03:22:56;7.03;;;6.37;;
19595;SDS011;9945;46.010;8.946;2023-03-17T03:25:23;7.13;;;6.43;;
19595;SDS011;9945;46.010;8.946;2023-03-17T03:27:52;7.03;;;6.43;;
19595;SDS011;9945;46.010;8.946;2023-03-17T03:30:19;8.30;;;6.87;;
19595;SDS011;9945;46.010;8.946;2023-03-17T03:32:46;7.40;;;6.70;;
19595;SDS011;9945;46.010;8.946;2023-03-17T03:35:13;7.57;;;6.80;;
19595;SDS011;9945;46.010;8.946;2023-03-17T03:37:40;7.63;;;6.93;;
19595;SDS011;9945;46.010;8.946;2023-03-17T03:40:08;7.93;;;6.97;;
19595;SDS011;9945;46.010;8.946;2023-03-17T03:42:36;7.37;;;6.30;;
19595;SDS011;9945;46.010;8.946;2023-03-17T03:45:05;7.60;;;6.60;;
19595;SDS011;9945;46.010;8.946;2023-03-17T03:47:32;7.50;;;6.80;;
19595;SDS011;9945;46.010;8.946;2023-03-17T03:50:00;11.43;;;6.93;;
19595;SDS011;9945;46.010;8.946;2023-03-17T03:52:27;8.37;;;6.83;;
19595;SDS011;9945;46.010;8.946;2023-03-17T03:54:53;6.97;;;6.33;;
19595;SDS011;9945;46.010;8.946;2023-03-17T03:57:20;7.60;;;6.90;;
19595;SDS011;9945;46.010;8.946;2023-03-17T03:59:47;7.83;;;6.67;;
19595;SDS011;9945;46.010;8.946;2023-03-17T04:02:15;7.13;;;6.43;;
19595;SDS011;9945;46.010;8.946;2023-03-17T04:04:42;7.97;;;7.17;;
19595;SDS011;9945;46.010;8.946;2023-03-17T04:07:09;7.37;;;6.67;;
19595;SDS011;9945;46.010;8.946;2023-03-17T04:09:37;7.37;;;6.57;;
19595;SDS011;9945;46.010;8.946;2023-03-17T04:12:04;7.47;;;6.60;;
19595;SDS011;9945;46.010;8.946;2023-03-17T04:14:32;6.97;;;6.23;;
19595;SDS011;9945;46.010;8.946;2023-03-17T04:16:59;7.00;;;6.30;;
19595;SDS011;9945;46.010;8.946;2023-03-17T04:19:27;7.50;;;6.80;;
19595;SDS011;9945;46.010;8.946;2023-03-17T04:21:54;8.93;;;6.80;;
19595;SDS011;9945;46.010;8.946;2023-03-17T04:24:21;7.93;;;6.47;;
19595;SDS011;9945;46.010;8.946;2023-03-17T04:26:48;7.63;;;6.47;;
19595;SDS011;9945;46.010;8.946;2023-03-17T04:29:16;9.63;;;6.43;;
19595;SDS011;9945;46.010;8.946;2023-03-17T04:31:43;7.20;;;6.23;;
19595;SDS011;9945;46.010;8.946;2023-03-17T04:34:11;6.30;;;5.80;;
19595;SDS011;9945;46.010;8.946;2023-03-17T04:36:42;7.13;;;6.53;;
19595;SDS011;9945;46.010;8.946;2023-03-17T04:39:10;8.40;;;6.70;;
19595;SDS011;9945;46.010;8.946;2023-03-17T04:41:38;7.60;;;6.90;;
19595;SDS011;9945;46.010;8.946;2023-03-17T04:44:05;6.80;;;6.20;;
19595;SDS011;9945;46.010;8.946;2023-03-17T04:46:32;7.70;;;6.90;;
19595;SDS011;9945;46.010;8.946;2023-03-17T04:49:00;6.70;;;6.00;;
19595;SDS011;9945;46.010;8.946;2023-03-17T04:51:26;6.20;;;5.70;;
19595;SDS011;9945;46.010;8.946;2023-03-17T04:53:55;7.07;;;6.43;;
19595;SDS011;9945;46.010;8.946;2023-03-17T04:56:21;8.07;;;7.27;;
19595;SDS011;9945;46.010;8.946;2023-03-17T04:58:48;7.93;;;7.13;;
19595;SDS011;9945;46.010;8.946;2023-03-17T05:01:15;8.20;;;6.50;;
19595;SDS011;9945;46.010;8.946;2023-03-17T05:03:42;8.00;;;6.67;;
19595;SDS011;9945;46.010;8.946;2023-03-17T05:06:09;6.60;;;6.10;;
19595;SDS011;9945;46.010;8.946;2023-03-17T05:08:36;7.27;;;6.50;;
19595;SDS011;9945;46.010;8.946;2023-03-17T05:11:04;8.70;;;6.37;;
19595;SDS011;9945;46.010;8.946;2023-03-17T05:13:31;6.77;;;6.13;;
19595;SDS011;9945;46.010;8.946;2023-03-17T05:15:58;6.87;;;6.27;;
19595;SDS011;9945;46.010;8.946;2023-03-17T05:18:26;7.03;;;6.30;;
19595;SDS011;9945;46.010;8.946;2023-03-17T05:20:53;10.43;;;7.30;;
19595;SDS011;9945;46.010;8.946;2023-03-17T05:23:19;7.13;;;6.53;;
19595;SDS011;9945;46.010;8.946;2023-03-17T05:25:47;7.50;;;6.80;;
19595;SDS011;9945;46.010;8.946;2023-03-17T05:28:15;8.43;;;7.33;;
19595;SDS011;9945;46.010;8.946;2023-03-17T05:30:42;7.20;;;6.40;;
19595;SDS011;9945;46.010;8.946;2023-03-17T05:33:10;7.43;;;6.73;;
19595;SDS011;9945;46.010;8.946;2023-03-17T05:35:38;7.43;;;6.73;;
19595;SDS011;9945;46.010;8.946;2023-03-17T05:38:05;7.13;;;6.53;;
19595;SDS011;9945;46.010;8.946;2023-03-17T05:40:32;7.10;;;6.40;;
19595;SDS011;9945;46.010;8.946;2023-03-17T05:43:01;7.63;;;6.93;;
19595;SDS011;9945;46.010;8.946;2023-03-17T05:45:30;7.00;;;6.40;;
19595;SDS011;9945;46.010;8.946;2023-03-17T05:47:57;7.23;;;6.53;;
19595;SDS011;9945;46.010;8.946;2023-03-17T05:50:25;7.10;;;6.40;;
19595;SDS011;9945;46.010;8.946;2023-03-17T05:52:52;7.17;;;6.47;;
19595;SDS011;9945;46.010;8.946;2023-03-17T05:55:19;8.00;;;7.20;;
19595;SDS011;9945;46.010;8.946;2023-03-17T05:57:45;6.90;;;6.20;;
19595;SDS011;9945;46.010;8.946;2023-03-17T06:00:13;12.20;;;7.63;;
19595;SDS011;9945;46.010;8.946;2023-03-17T06:02:44;8.77;;;7.30;;
19595;SDS011;9945;46.010;8.946;2023-03-17T06:05:11;8.17;;;7.37;;
19595;SDS011;9945;46.010;8.946;2023-03-17T06:07:38;7.97;;;7.23;;
19595;SDS011;9945;46.010;8.946;2023-03-17T06:10:06;8.07;;;7.33;;
19595;SDS011;9945;46.010;8.946;2023-03-17T06:12:34;8.73;;;7.40;;
19595;SDS011;9945;46.010;8.946;2023-03-17T06:15:01;8.33;;;7.03;;
19595;SDS011;9945;46.010;8.946;2023-03-17T06:17:28;8.07;;;7.37;;
19595;SDS011;9945;46.010;8.946;2023-03-17T06:19:56;9.37;;;8.47;;
19595;SDS011;9945;46.010;8.946;2023-03-17T06:22:23;7.80;;;7.00;;
19595;SDS011;9945;46.010;8.946;2023-03-17T06:24:50;7.50;;;6.80;;
19595;SDS011;9945;46.010;8.946;2023-03-17T06:27:17;7.70;;;7.00;;
19595;SDS011;9945;46.010;8.946;2023-03-17T06:29:44;9.00;;;7.23;;
19595;SDS011;9945;46.010;8.946;2023-03-17T06:32:11;9.27;;;6.67;;
19595;SDS011;9945;46.010;8.946;2023-03-17T06:34:38;12.03;;;8.30;;
19595;SDS011;9945;46.010;8.946;2023-03-17T06:37:08;7.90;;;7.10;;
19595;SDS011;9945;46.010;8.946;2023-03-17T06:39:35;7.53;;;6.83;;
19595;SDS011;9945;46.010;8.946;2023-03-17T06:42:03;7.60;;;6.90;;
19595;SDS011;9945;46.010;8.946;2023-03-17T06:44:30;9.53;;;6.93;;
19595;SDS011;9945;46.010;8.946;2023-03-17T06:46:57;8.13;;;7.33;;
19595;SDS011;9945;46.010;8.946;2023-03-17T06:49:24;9.27;;;7.23;;
19595;SDS011;9945;46.010;8.946;2023-03-17T06:51:51;10.47;;;7.10;;
19595;SDS011;9945;46.010;8.946;2023-03-17T06:54:20;10.47;;;7.53;;
19595;SDS011;9945;46.010;8.946;2023-03-17T06:56:48;8.07;;;7.27;;
19595;SDS011;9945;46.010;8.946;2023-03-17T06:59:15;8.13;;;7.30;;
19595;SDS011;9945;46.010;8.946;2023-03-17T07:01:42;9.67;;;7.20;;
19595;SDS011;9945;46.010;8.946;2023-03-17T07:04:10;9.07;;;7.80;;
19595;SDS011;9945;46.010;8.946;2023-03-17T07:06:37;8.27;;;7.47;;
19595;SDS011;9945;46.010;8.946;2023-03-17T07:09:04;9.10;;;7.20;;
19595;SDS011;9945;46.010;8.946;2023-03-17T07:11:33;7.60;;;6.90;;
19595;SDS011;9945;46.010;8.946;2023-03-17T07:13:59;7.50;;;6.80;;
19595;SDS011;9945;46.010;8.946;2023-03-17T07:16:26;7.40;;;6.70;;
19595;SDS011;9945;46.010;8.946;2023-03-17T07:18:53;11.20;;;6.83;;
19595;SDS011;9945;46.010;8.946;2023-03-17T07:21:20;13.47;;;7.63;;
19595;SDS011;9945;46.010;8.946;2023-03-17T07:23:47;8.47;;;7.47;;
19595;SDS011;9945;46.010;8.946;2023-03-17T07:26:14;8.77;;;7.30;;
19595;SDS011;9945;46.010;8.946;2023-03-17T07:28:42;7.97;;;6.97;;
19595;SDS011;9945;46.010;8.946;2023-03-17T07:31:09;9.27;;;7.60;;
19595;SDS011;9945;46.010;8.946;2023-03-17T07:33:38;7.67;;;6.90;;
19595;SDS011;9945;46.010;8.946;2023-03-17T07:36:05;17.57;;;15.63;;
19595;SDS011;9945;46.010;8.946;2023-03-17T07:38:33;8.50;;;7.70;;
19595;SDS011;9945;46.010;8.946;2023-03-17T07:41:00;8.03;;;7.23;;
19595;SDS011;9945;46.010;8.946;2023-03-17T07:43:27;6.90;;;6.40;;
19595;SDS011;9945;46.010;8.946;2023-03-17T07:45:56;8.37;;;6.70;;
19595;SDS011;9945;46.010;8.946;2023-03-17T07:48:23;12.87;;;7.70;;
19595;SDS011;9945;46.010;8.946;2023-03-17T07:50:49;8.10;;;7.30;;
19595;SDS011;9945;46.010;8.946;2023-03-17T07:53:16;15.63;;;7.20;;
19595;SDS011;9945;46.010;8.946;2023-03-17T07:55:43;8.17;;;7.37;;
19595;SDS011;9945;46.010;8.946;2023-03-17T07:58:10;10.70;;;7.80;;
19595;SDS011;9945;46.010;8.946;2023-03-17T08:00:37;9.10;;;6.87;;
19595;SDS011;9945;46.010;8.946;2023-03-17T08:03:05;12.63;;;7.63;;
19595;SDS011;9945;46.010;8.946;2023-03-17T08:05:32;9.47;;;7.73;;
19595;SDS011;9945;46.010;8.946;2023-03-17T08:07:59;14.07;;;7.33;;
19595;SDS011;9945;46.010;8.946;2023-03-17T08:10:26;8.90;;;8.00;;
19595;SDS011;9945;46.010;8.946;2023-03-17T08:12:53;11.33;;;8.03;;
19595;SDS011;9945;46.010;8.946;2023-03-17T08:15:20;8.73;;;7.37;;
19595;SDS011;9945;46.010;8.946;2023-03-17T08:17:47;9.90;;;7.75;;
19595;SDS011;9945;46.010;8.946;2023-03-17T08:20:15;9.83;;;7.93;;
19595;SDS011;9945;46.010;8.946;2023-03-17T08:22:43;9.73;;;8.23;;
19595;SDS011;9945;46.010;8.946;2023-03-17T08:25:10;8.73;;;7.93;;
19595;SDS011;9945;46.010;8.946;2023-03-17T08:27:37;7.87;;;7.10;;
19595;SDS011;9945;46.010;8.946;2023-03-17T08:30:04;9.63;;;7.63;;
19595;SDS011;9945;46.010;8.946;2023-03-17T08:32:32;12.77;;;7.57;;
19595;SDS011;9945;46.010;8.946;2023-03-17T08:34:59;15.10;;;9.90;;
19595;SDS011;9945;46.010;8.946;2023-03-17T08:37:28;8.52;;;7.72;;
19595;SDS011;9945;46.010;8.946;2023-03-17T08:39:54;9.63;;;7.95;;
19595;SDS011;9945;46.010;8.946;2023-03-17T08:42:21;12.02;;;7.60;;
19595;SDS011;9945;46.010;8.946;2023-03-17T08:44:49;10.37;;;8.13;;
19595;SDS011;9945;46.010;8.946;2023-03-17T08:47:16;10.40;;;8.37;;
19595;SDS011;9945;46.010;8.946;2023-03-17T08:49:42;10.15;;;7.35;;
19595;SDS011;9945;46.010;8.946;2023-03-17T08:52:09;8.55;;;7.75;;
19595;SDS011;9945;46.010;8.946;2023-03-17T08:54:37;8.63;;;7.72;;
19595;SDS011;9945;46.010;8.946;2023-03-17T08:57:05;9.15;;;7.60;;
19595;SDS011;9945;46.010;8.946;2023-03-17T08:59:32;8.15;;;7.40;;
19595;SDS011;9945;46.010;8.946;2023-03-17T09:01:59;10.05;;;8.93;;
19595;SDS011;9945;46.010;8.946;2023-03-17T09:04:25;18.13;;;11.35;;
19595;SDS011;9945;46.010;8.946;2023-03-17T09:06:52;14.30;;;10.40;;
19595;SDS011;9945;46.010;8.946;2023-03-17T09:09:20;10.00;;;8.27;;
19595;SDS011;9945;46.010;8.946;2023-03-17T09:11:49;11.85;;;8.70;;
19595;SDS011;9945;46.010;8.946;2023-03-17T09:14:15;10.15;;;9.02;;
19595;SDS011;9945;46.010;8.946;2023-03-17T09:16:42;10.32;;;9.02;;
19595;SDS011;9945;46.010;8.946;2023-03-17T09:19:12;11.07;;;9.63;;
19595;SDS011;9945;46.010;8.946;2023-03-17T09:21:40;10.35;;;9.25;;
19595;SDS011;9945;46.010;8.946;2023-03-17T09:24:08;11.27;;;9.02;;
19595;SDS011;9945;46.010;8.946;2023-03-17T09:26:35;11.35;;;8.07;;
19595;SDS011;9945;46.010;8.946;2023-03-17T09:29:03;8.82;;;8.07;;
19595;SDS011;9945;46.010;8.946;2023-03-17T09:31:31;10.82;;;8.10;;
19595;SDS011;9945;46.010;8.946;2023-03-17T09:34:00;8.82;;;7.38;;
19595;SDS011;9945;46.010;8.946;2023-03-17T09:36:28;8.68;;;7.85;;
19595;SDS011;9945;46.010;8.946;2023-03-17T09:38:55;9.13;;;8.05;;
19595;SDS011;9945;46.010;8.946;2023-03-17T09:41:27;8.77;;;7.82;;
19595;SDS011;9945;46.010;8.946;2023-03-17T09:44:13;9.13;;;6.55;;
19595;SDS011;9945;46.010;8.946;2023-03-17T09:46:56;7.93;;;6.47;;
19595;SDS011;9945;46.010;8.946;2023-03-17T09:49:34;7.78;;;7.03;;
19595;SDS011;9945;46.010;8.946;2023-03-17T09:52:09;8.57;;;7.00;;
19595;SDS011;9945;46.010;8.946;2023-03-17T09:54:39;8.63;;;7.63;;
19595;SDS011;9945;46.010;8.946;2023-03-17T09:57:09;8.77;;;7.25;;
19595;SDS011;9945;46.010;8.946;2023-03-17T09:59:42;6.68;;;6.03;;
19595;SDS011;9945;46.010;8.946;2023-03-17T10:02:15;8.60;;;6.18;;
19595;SDS011;9945;46.010;8.946;2023-03-17T10:04:45;6.10;;;5.60;;
19595;SDS011;9945;46.010;8.946;2023-03-17T10:07:13;6.90;;;6.28;;
19595;SDS011;9945;46.010;8.946;2023-03-17T10:09:43;6.55;;;6.00;;
19595;SDS011;9945;46.010;8.946;2023-03-17T10:12:18;7.07;;;6.38;;
19595;SDS011;9945;46.010;8.946;2023-03-17T10:14:53;6.10;;;5.50;;
19595;SDS011;9945;46.010;8.946;2023-03-17T10:17:27;6.78;;;5.40;;
19595;SDS011;9945;46.010;8.946;2023-03-17T10:19:57;7.03;;;6.35;;
19595;SDS011;9945;46.010;8.946;2023-03-17T10:22:27;6.00;;;5.38;;
19595;SDS011;9945;46.010;8.946;2023-03-17T10:24:58;5.68;;;5.25;;
19595;SDS011;9945;46.010;8.946;2023-03-17T10:27:33;6.50;;;5.90;;
19595;SDS011;9945;46.010;8.946;2023-03-17T10:30:05;5.97;;;5.57;;
19595;SDS011;9945;46.010;8.946;2023-03-17T10:32:41;7.32;;;6.15;;
19595;SDS011;9945;46.010;8.946;2023-03-17T10:35:09;6.55;;;5.97;;
19595;SDS011;9945;46.010;8.946;2023-03-17T10:37:37;6.40;;;5.85;;
19595;SDS011;9945;46.010;8.946;2023-03-17T10:40:05;7.78;;;6.43;;
19595;SDS011;9945;46.010;8.946;2023-03-17T10:42:45;6.57;;;6.07;;
19595;SDS011;9945;46.010;8.946;2023-03-17T10:45:15;6.75;;;6.25;;
19595;SDS011;9945;46.010;8.946;2023-03-17T10:47:49;6.82;;;6.25;;
19595;SDS011;9945;46.010;8.946;2023-03-17T10:50:20;6.82;;;6.22;;
19595;SDS011;9945;46.010;8.946;2023-03-17T10:52:51;9.82;;;6.10;;
19595;SDS011;9945;46.010;8.946;2023-03-17T10:55:25;8.48;;;6.57;;
19595;SDS011;9945;46.010;8.946;2023-03-17T10:57:57;8.88;;;6.38;;
19595;SDS011;9945;46.010;8.946;2023-03-17T11:00:30;6.80;;;6.30;;
19595;SDS011;9945;46.010;8.946;2023-03-17T11:03:02;8.18;;;6.40;;
19595;SDS011;9945;46.010;8.946;2023-03-17T11:05:36;7.97;;;7.18;;
19595;SDS011;9945;46.010;8.946;2023-03-17T11:08:07;9.43;;;6.90;;
19595;SDS011;9945;46.010;8.946;2023-03-17T11:10:37;6.72;;;6.22;;
19595;SDS011;9945;46.010;8.946;2023-03-17T11:13:06;7.03;;;6.43;;
19595;SDS011;9945;46.010;8.946;2023-03-17T11:15:35;7.50;;;6.80;;
19595;SDS011;9945;46.010;8.946;2023-03-17T11:18:10;7.18;;;6.57;;
19595;SDS011;9945;46.010;8.946;2023-03-17T11:20:45;7.65;;;6.97;;
19595;SDS011;9945;46.010;8.946;2023-03-17T11:23:17;7.30;;;6.57;;
19595;SDS011;9945;46.010;8.946;2023-03-17T11:26:00;8.18;;;6.93;;
19595;SDS011;9945;46.010;8.946;2023-03-17T11:28:39;10.05;;;7.82;;
19595;SDS011;9945;46.010;8.946;2023-03-17T11:31:15;8.23;;;7.47;;
19595;SDS011;9945;46.010;8.946;2023-03-17T11:33:51;6.97;;;6.38;;
19595;SDS011;9945;46.010;8.946;2023-03-17T11:36:28;7.63;;;6.93;;
19595;SDS011;9945;46.010;8.946;2023-03-17T11:39:09;7.97;;;7.22;;
19595;SDS011;9945;46.010;8.946;2023-03-17T11:41:43;8.73;;;6.38;;
19595;SDS011;9945;46.010;8.946;2023-03-17T11:50:11;7.30;;;6.60;;
19595;SDS011;9945;46.010;8.946;2023-03-17T11:52:47;6.32;;;5.80;;
19595;SDS011;9945;46.010;8.946;2023-03-17T11:55:27;7.05;;;6.45;;
19595;SDS011;9945;46.010;8.946;2023-03-17T11:58:02;7.78;;;7.07;;
19595;SDS011;9945;46.010;8.946;2023-03-17T12:00:35;7.43;;;6.72;;
19595;SDS011;9945;46.010;8.946;2023-03-17T12:03:11;7.05;;;6.45;;
19595;SDS011;9945;46.010;8.946;2023-03-17T12:05:42;7.72;;;6.95;;
19595;SDS011;9945;46.010;8.946;2023-03-17T12:08:16;7.18;;;6.43;;
19595;SDS011;9945;46.010;8.946;2023-03-17T12:10:54;6.40;;;5.90;;
19595;SDS011;9945;46.010;8.946;2023-03-17T12:13:27;9.52;;;7.15;;
19595;SDS011;9945;46.010;8.946;2023-03-17T12:15:59;8.02;;;6.75;;
19595;SDS011;9945;46.010;8.946;2023-03-17T12:18:33;7.47;;;6.80;;
19595;SDS011;9945;46.010;8.946;2023-03-17T12:21:05;9.57;;;7.03;;
19595;SDS011;9945;46.010;8.946;2023-03-17T12:23:39;7.72;;;7.07;;
19595;SDS011;9945;46.010;8.946;2023-03-17T12:26:18;7.80;;;7.15;;
19595;SDS011;9945;46.010;8.946;2023-03-17T12:28:55;10.45;;;7.32;;
19595;SDS011;9945;46.010;8.946;2023-03-17T12:31:26;7.55;;;6.80;;
19595;SDS011;9945;46.010;8.946;2023-03-17T12:33:58;7.88;;;7.10;;
19595;SDS011;9945;46.010;8.946;2023-03-17T12:36:30;7.70;;;7.00;;
19595;SDS011;9945;46.010;8.946;2023-03-17T12:38:58;8.50;;;7.28;;
19595;SDS011;9945;46.010;8.946;2023-03-17T12:41:37;10.85;;;7.93;;
19595;SDS011;9945;46.010;8.946;2023-03-17T12:44:18;8.38;;;7.65;;
19595;SDS011;9945;46.010;8.946;2023-03-17T12:46:58;8.77;;;7.53;;
19595;SDS011;9945;46.010;8.946;2023-03-17T12:49:53;12.25;;;8.45;;
19595;SDS011;9945;46.010;8.946;2023-03-17T12:52:38;10.25;;;7.15;;
19595;SDS011;9945;46.010;8.946;2023-03-17T12:55:13;9.60;;;8.27;;
19595;SDS011;9945;46.010;8.946;2023-03-17T12:57:43;7.93;;;6.93;;
19595;SDS011;9945;46.010;8.946;2023-03-17T13:00:16;10.18;;;7.13;;
19595;SDS011;9945;46.010;8.946;2023-03-17T13:02:50;8.18;;;7.38;;
19595;SDS011;9945;46.010;8.946;2023-03-17T13:05:33;8.75;;;7.40;;
19595;SDS011;9945;46.010;8.946;2023-03-17T13:08:03;8.65;;;7.85;;
19595;SDS011;9945;46.010;8.946;2023-03-17T13:10:35;9.05;;;7.55;;
19595;SDS011;9945;46.010;8.946;2023-03-17T13:13:05;10.32;;;8.35;;
19595;SDS011;9945;46.010;8.946;2023-03-17T13:15:54;10.35;;;8.15;;
19595;SDS011;9945;46.010;8.946;2023-03-17T13:21:14;8.57;;;7.18;;
19595;SDS011;9945;46.010;8.946;2023-03-17T13:23:43;9.65;;;7.78;;
19595;SDS011;9945;46.010;8.946;2023-03-17T13:26:11;8.65;;;7.55;;
19595;SDS011;9945;46.010;8.946;2023-03-17T13:28:41;8.45;;;7.63;;
19595;SDS011;9945;46.010;8.946;2023-03-17T13:31:13;15.15;;;13.60;;
19595;SDS011;9945;46.010;8.946;2023-03-17T13:33:55;9.27;;;8.30;;
19595;SDS011;9945;46.010;8.946;2023-03-17T13:36:30;15.35;;;8.45;;
19595;SDS011;9945;46.010;8.946;2023-03-17T13:39:16;8.30;;;7.50;;
19595;SDS011;9945;46.010;8.946;2023-03-17T13:42:18;9.23;;;8.10;;
19595;SDS011;9945;46.010;8.946;2023-03-17T13:45:01;9.70;;;8.20;;
19595;SDS011;9945;46.010;8.946;2023-03-17T13:47:39;7.55;;;6.95;;
19595;SDS011;9945;46.010;8.946;2023-03-17T13:50:10;8.48;;;7.68;;
19595;SDS011;9945;46.010;8.946;2023-03-17T13:52:42;13.02;;;9.80;;
19595;SDS011;9945;46.010;8.946;2023-03-17T13:55:33;9.10;;;8.20;;
19595;SDS011;9945;46.010;8.946;2023-03-17T14:01:01;8.98;;;8.02;;
19595;SDS011;9945;46.010;8.946;2023-03-17T14:03:38;9.13;;;8.23;;
19595;SDS011;9945;46.010;8.946;2023-03-17T14:06:09;10.95;;;8.40;;
19595;SDS011;9945;46.010;8.946;2023-03-17T14:08:40;10.07;;;8.40;;
19595;SDS011;9945;46.010;8.946;2023-03-17T14:11:15;11.38;;;8.88;;
19595;SDS011;9945;46.010;8.946;2023-03-17T14:13:50;11.07;;;9.68;;
19595;SDS011;9945;46.010;8.946;2023-03-17T14:16:25;10.52;;;8.95;;
19595;SDS011;9945;46.010;8.946;2023-03-17T14:18:57;16.25;;;8.85;;
19595;SDS011;9945;46.010;8.946;2023-03-17T14:21:33;9.70;;;8.70;;
19595;SDS011;9945;46.010;8.946;2023-03-17T14:24:11;9.32;;;8.32;;
19595;SDS011;9945;46.010;8.946;2023-03-17T14:26:43;10.15;;;8.98;;
19595;SDS011;9945;46.010;8.946;2023-03-17T14:29:13;9.38;;;8.25;;
19595;SDS011;9945;46.010;8.946;2023-03-17T14:31:42;10.65;;;8.57;;
19595;SDS011;9945;46.010;8.946;2023-03-17T14:34:14;10.63;;;9.48;;
19595;SDS011;9945;46.010;8.946;2023-03-17T14:36:41;10.57;;;9.05;;
19595;SDS011;9945;46.010;8.946;2023-03-17T14:39:18;9.63;;;8.63;;
19595;SDS011;9945;46.010;8.946;2023-03-17T14:41:55;16.88;;;8.70;;
19595;SDS011;9945;46.010;8.946;2023-03-17T14:44:24;10.77;;;9.48;;
19595;SDS011;9945;46.010;8.946;2023-03-17T14:46:58;11.63;;;9.35;;
19595;SDS011;9945;46.010;8.946;2023-03-17T14:49:27;10.18;;;8.80;;
19595;SDS011;9945;46.010;8.946;2023-03-17T14:51:56;10.07;;;8.85;;
19595;SDS011;9945;46.010;8.946;2023-03-17T14:54:25;12.00;;;9.88;;
19595;SDS011;9945;46.010;8.946;2023-03-17T14:56:56;12.45;;;9.05;;
19595;SDS011;9945;46.010;8.946;2023-03-17T14:59:28;15.15;;;9.25;;
19595;SDS011;9945;46.010;8.946;2023-03-17T15:01:58;9.68;;;8.68;;
19595;SDS011;9945;46.010;8.946;2023-03-17T15:04:27;10.57;;;9.40;;
19595;SDS011;9945;46.010;8.946;2023-03-17T15:06:56;14.20;;;9.27;;
19595;SDS011;9945;46.010;8.946;2023-03-17T15:09:26;11.75;;;9.50;;
19595;SDS011;9945;46.010;8.946;2023-03-17T15:11:57;10.13;;;8.73;;
19595;SDS011;9945;46.010;8.946;2023-03-17T15:14:29;10.02;;;8.93;;
19595;SDS011;9945;46.010;8.946;2023-03-17T15:17:00;11.02;;;9.68;;
19595;SDS011;9945;46.010;8.946;2023-03-17T15:19:36;11.57;;;10.02;;
19595;SDS011;9945;46.010;8.946;2023-03-17T15:22:20;14.13;;;10.45;;
19595;SDS011;9945;46.010;8.946;2023-03-17T15:24:58;13.43;;;9.77;;
19595;SDS011;9945;46.010;8.946;2023-03-17T15:27:27;12.38;;;10.35;;
19595;SDS011;9945;46.010;8.946;2023-03-17T15:29:56;13.20;;;9.48;;